Climatologie pour Saint-Brevin les Pins
Jour • Résumé pour février 18, 2017 Système :  Métrique    Anglais   Mixte
« - 1 jour
+ 1 jour »
Jour Semaine Mois Année Personnalisé
  Maximum : Minimum : Moyenne :
Température sous abri : 14.4 °C 1.4 °C 6.2 °C
Point de rosée : 8.9 °C 0.7 °C 4.3 °C
Humidité : 98 % 60 % 89 %
Vitesse du vent : 12.9 km/h 0.0 km/h 1.8 km/h
Rafale : 19.3 km/h - -
Direction :- - East
Pression : 1025.6 hPa 1021.6 hPa -
Précipitations : 0.3 mm    
Historical Graphs
 
 
Tableau de données pour février 18, 2017
Heure Tempé Pt rosée Pression Vent Vitesse Rafale Humidité Taux pluie (/hr) Soleil
00:00 6.3 °C 5.3 °C 1025.6 hPa Calm     93 % 0.0 mm 0 W/m2
00:10 6.3 °C 5.1 °C 1025.3 hPa Calm     92 % 0.0 mm 0 W/m2
00:15 6.3 °C 5.1 °C 1025.3 hPa Calm     92 % 0.0 mm 0 W/m2
00:20 6.4 °C 5.2 °C 1025.3 hPa Calm     92 % 0.0 mm 0 W/m2
00:25 6.3 °C 5.0 °C 1025.3 hPa Calm     91 % 0.0 mm 0 W/m2
00:30 6.2 °C 4.9 °C 1025.3 hPa Calm     91 % 0.0 mm 0 W/m2
00:40 6.1 °C 4.9 °C 1025.3 hPa Calm     92 % 0.0 mm 0 W/m2
00:45 6.1 °C 4.9 °C 1025.6 hPa Calm     92 % 0.0 mm 0 W/m2
00:50 5.8 °C 4.5 °C 1025.3 hPa Calm     91 % 0.0 mm 0 W/m2
00:55 5.6 °C 4.4 °C 1025.3 hPa Calm     92 % 0.0 mm 0 W/m2
01:00 5.6 °C 4.4 °C 1025.3 hPa Calm     92 % 0.0 mm 0 W/m2
01:10 5.4 °C 4.2 °C 1025.3 hPa Calm     92 % 0.0 mm 0 W/m2
01:15 5.2 °C 4.0 °C 1025.3 hPa Calm     92 % 0.0 mm 0 W/m2
01:25 5.2 °C 4.1 °C 1025.3 hPa Calm     93 % 0.0 mm 0 W/m2
01:30 5.1 °C 4.0 °C 1025.3 hPa Calm     93 % 0.0 mm 0 W/m2
01:40 5.2 °C 4.1 °C 1025.3 hPa Calm     93 % 0.0 mm 0 W/m2
01:45 5.1 °C 4.1 °C 1025.3 hPa Calm     93 % 0.0 mm 0 W/m2
01:50 5.2 °C 4.2 °C 1025.3 hPa Calm     93 % 0.0 mm 0 W/m2
02:00 5.2 °C 4.1 °C 1024.9 hPa Calm     93 % 0.0 mm 0 W/m2
02:10 5.1 °C 4.1 °C 1024.9 hPa Calm     93 % 0.0 mm 0 W/m2
02:15 5.1 °C 4.0 °C 1024.9 hPa Calm     93 % 0.0 mm 0 W/m2
02:20 5.1 °C 4.0 °C 1024.9 hPa Calm     93 % 0.0 mm 0 W/m2
02:30 4.9 °C 3.9 °C 1024.9 hPa Calm     93 % 0.0 mm 0 W/m2
02:40 4.8 °C 3.8 °C 1024.6 hPa Calm     93 % 0.0 mm 0 W/m2
02:45 4.7 °C 3.6 °C 1024.6 hPa Calm     93 % 0.0 mm 0 W/m2
02:55 4.7 °C 3.8 °C 1024.6 hPa Calm     94 % 0.0 mm 0 W/m2
03:00 4.5 °C 3.5 °C 1024.6 hPa Calm     93 % 0.0 mm 0 W/m2
03:10 3.6 °C 2.7 °C 1024.6 hPa Calm     94 % 0.0 mm 0 W/m2
03:20 3.2 °C 2.5 °C 1024.3 hPa Calm     95 % 0.0 mm 0 W/m2
03:25 3.3 °C 2.6 °C 1024.3 hPa Calm     95 % 0.0 mm 0 W/m2
03:30 3.3 °C 2.6 °C 1024.3 hPa Calm     95 % 0.0 mm 0 W/m2
03:40 3.8 °C 3.2 °C 1024.3 hPa Calm     96 % 0.0 mm 0 W/m2
03:45 4.1 °C 3.5 °C 1023.9 hPa Calm     96 % 0.0 mm 0 W/m2
03:50 4.3 °C 3.7 °C 1023.9 hPa Calm     96 % 0.0 mm 0 W/m2
03:55 4.3 °C 3.6 °C 1023.9 hPa Calm     95 % 0.0 mm 0 W/m2
04:00 4.3 °C 3.5 °C 1023.9 hPa Calm     95 % 0.0 mm 0 W/m2
04:15 4.6 °C 3.8 °C 1023.6 hPa Calm     95 % 0.0 mm 0 W/m2
04:25 4.4 °C 3.5 °C 1023.6 hPa Calm     94 % 0.0 mm 0 W/m2
04:30 4.4 °C 3.5 °C 1023.6 hPa Calm     94 % 0.0 mm 0 W/m2
04:40 4.4 °C 3.7 °C 1023.2 hPa Calm     95 % 0.0 mm 0 W/m2
04:45 4.6 °C 3.8 °C 1023.2 hPa Calm     95 % 0.0 mm 0 W/m2
04:55 4.8 °C 4.0 °C 1023.2 hPa Calm     95 % 0.0 mm 0 W/m2
05:00 4.7 °C 3.9 °C 1023.2 hPa Calm     95 % 0.0 mm 0 W/m2
05:10 4.6 °C 3.7 °C 1023.2 hPa Calm     94 % 0.0 mm 0 W/m2
05:15 4.5 °C 3.8 °C 1023.2 hPa Calm     95 % 0.0 mm 0 W/m2
05:20 4.4 °C 3.5 °C 1023.2 hPa Calm     94 % 0.0 mm 0 W/m2
05:25 4.3 °C 3.4 °C 1023.2 hPa Calm     94 % 0.0 mm 0 W/m2
05:30 4.2 °C 3.3 °C 1023.2 hPa Calm     94 % 0.0 mm 0 W/m2
05:40 3.8 °C 3.1 °C 1023.2 hPa Calm     95 % 0.0 mm 0 W/m2
05:50 3.7 °C 2.9 °C 1023.2 hPa Calm     95 % 0.0 mm 0 W/m2
06:00 3.5 °C 2.8 °C 1023.2 hPa Calm     95 % 0.0 mm 0 W/m2
06:10 3.2 °C 2.5 °C 1023.2 hPa Calm     95 % 0.0 mm 0 W/m2
06:15 2.8 °C 2.1 °C 1023.2 hPa Calm     95 % 0.0 mm 0 W/m2
06:25 2.6 °C 2.0 °C 1023.6 hPa Calm     96 % 0.0 mm 0 W/m2
06:30 2.5 °C 1.9 °C 1023.2 hPa Calm     96 % 0.0 mm 0 W/m2
06:40 2.2 °C 1.7 °C 1023.2 hPa Calm     96 % 0.0 mm 0 W/m2
06:45 2.1 °C 1.5 °C 1023.2 hPa Calm     96 % 0.0 mm 0 W/m2
06:55 1.8 °C 1.3 °C 1023.2 hPa Calm     96 % 0.0 mm 0 W/m2
07:00 1.8 °C 1.2 °C 1022.9 hPa Calm     96 % 0.0 mm 0 W/m2
07:10 2.1 °C 1.6 °C 1022.9 hPa Calm     97 % 0.0 mm 0 W/m2
07:15 1.9 °C 1.4 °C 1022.9 hPa Calm     96 % 0.0 mm 0 W/m2
07:20 1.9 °C 1.5 °C 1022.9 hPa Calm     97 % 0.0 mm 0 W/m2
07:25 2.1 °C 1.6 °C 1022.9 hPa Calm     97 % 0.0 mm 0 W/m2
07:30 2.1 °C 1.6 °C 1022.9 hPa Calm     97 % 0.0 mm 0 W/m2
07:40 1.9 °C 1.5 °C 1022.9 hPa Calm     97 % 0.0 mm 0 W/m2
07:45 1.8 °C 1.2 °C 1022.9 hPa Calm     96 % 0.0 mm 0 W/m2
07:55 1.7 °C 1.2 °C 1023.2 hPa Calm     97 % 0.0 mm 0 W/m2
08:00 1.9 °C 1.5 °C 1023.2 hPa Calm     97 % 0.0 mm 0 W/m2
08:10 2.2 °C 1.7 °C 1022.9 hPa East 3.2 km/h 4.8 km/h 97 % 0.0 mm 5 W/m2
08:15 2.5 °C 2.2 °C 1023.2 hPa East 3.2 km/h 8.0 km/h 98 % 0.0 mm 7 W/m2
08:20 2.6 °C 2.2 °C 1023.2 hPa East 1.6 km/h 8.0 km/h 97 % 0.0 mm 9 W/m2
08:26 2.4 °C 2.0 °C 1023.2 hPa ENE 3.2 km/h 3.2 km/h 97 % 0.0 mm 16 W/m2
08:36 2.5 °C 2.1 °C 1023.2 hPa ENE 1.6 km/h 3.2 km/h 97 % 0.0 mm 17 W/m2
08:45 2.9 °C 2.6 °C 1023.2 hPa East 1.6 km/h 6.4 km/h 98 % 0.0 mm 25 W/m2
08:50 3.0 °C 2.7 °C 1023.2 hPa Calm   4.8 km/h 98 % 0.0 mm 30 W/m2
08:55 3.0 °C 2.6 °C 1023.2 hPa Calm   3.2 km/h 97 % 0.0 mm 40 W/m2
09:00 3.1 °C 2.8 °C 1023.2 hPa Calm   1.6 km/h 98 % 0.0 mm 42 W/m2
09:08 3.0 °C 2.6 °C 1023.2 hPa East 3.2 km/h 3.2 km/h 97 % 0.0 mm 45 W/m2
09:15 3.0 °C 2.6 °C 1023.2 hPa East 1.6 km/h 4.8 km/h 97 % 0.3 mm 76 W/m2
09:20 3.0 °C 2.6 °C 1023.2 hPa Calm   4.8 km/h 97 % 0.3 mm 91 W/m2
09:25 3.0 °C 2.7 °C 1023.2 hPa East 3.2 km/h 9.7 km/h 98 % 0.3 mm 102 W/m2
09:30 2.9 °C 2.7 °C 1023.2 hPa East 1.6 km/h 11.3 km/h 98 % 0.3 mm 102 W/m2
09:35 2.9 °C 2.7 °C 1023.2 hPa Calm   11.3 km/h 98 % 0.3 mm 97 W/m2
09:45 3.2 °C 2.9 °C 1023.2 hPa Calm   6.4 km/h 98 % 0.3 mm 121 W/m2
09:50 3.4 °C 3.1 °C 1023.2 hPa East 4.8 km/h 8.0 km/h 98 % 0.3 mm 125 W/m2
09:55 3.7 °C 3.4 °C 1023.2 hPa East 3.2 km/h 9.7 km/h 98 % 0.3 mm 114 W/m2
10:00 3.9 °C 3.6 °C 1023.2 hPa East 8.0 km/h 9.7 km/h 98 % 0.3 mm 114 W/m2
10:10 4.4 °C 4.2 °C 1023.2 hPa ESE 3.2 km/h 8.0 km/h 98 % 0.0 mm 158 W/m2
10:15 4.8 °C 4.5 °C 1023.6 hPa East 1.6 km/h 8.0 km/h 98 % 0.0 mm 120 W/m2
10:20 4.8 °C 4.5 °C 1023.6 hPa ESE 8.0 km/h 11.3 km/h 98 % 0.0 mm 128 W/m2
10:30 4.5 °C 4.2 °C 1023.6 hPa ESE 8.0 km/h 14.5 km/h 98 % 0.0 mm 229 W/m2
10:40 4.7 °C 4.4 °C 1023.6 hPa ESE 8.0 km/h 14.5 km/h 98 % 0.0 mm 200 W/m2
10:45 4.7 °C 4.4 °C 1023.6 hPa ESE 4.8 km/h 14.5 km/h 98 % 0.0 mm 269 W/m2
10:50 5.1 °C 4.8 °C 1023.9 hPa Calm   14.5 km/h 98 % 0.0 mm 239 W/m2
10:55 5.1 °C 4.8 °C 1023.9 hPa ENE 1.6 km/h 11.3 km/h 98 % 0.0 mm 142 W/m2
11:00 4.9 °C 4.6 °C 1023.9 hPa Calm   11.3 km/h 98 % 0.0 mm 178 W/m2
11:05 5.1 °C 4.8 °C 1023.9 hPa ESE 1.6 km/h 8.0 km/h 98 % 0.0 mm 294 W/m2
11:15 5.1 °C 4.8 °C 1023.9 hPa ESE 6.4 km/h 14.5 km/h 98 % 0.0 mm 267 W/m2
11:20 5.4 °C 5.2 °C 1023.6 hPa ESE 1.6 km/h 14.5 km/h 98 % 0.0 mm 299 W/m2
11:25 5.8 °C 5.5 °C 1023.6 hPa Calm   11.3 km/h 98 % 0.0 mm 343 W/m2
11:30 5.9 °C 5.7 °C 1023.6 hPa East 8.0 km/h 11.3 km/h 98 % 0.0 mm 230 W/m2
11:41 5.7 °C 5.4 °C 1023.6 hPa East 12.9 km/h 12.9 km/h 98 % 0.0 mm 192 W/m2
11:50 5.8 °C 5.3 °C 1023.6 hPa ESE 4.8 km/h 12.9 km/h 97 % 0.0 mm 350 W/m2
12:00 6.3 °C 5.9 °C 1023.6 hPa East 8.0 km/h 14.5 km/h 97 % 0.0 mm 278 W/m2
12:10 7.1 °C 6.5 °C 1023.6 hPa ENE 4.8 km/h 14.5 km/h 96 % 0.0 mm 357 W/m2
12:20 7.2 °C 6.6 °C 1023.6 hPa East 3.2 km/h 12.9 km/h 96 % 0.0 mm 527 W/m2
12:30 7.2 °C 6.1 °C 1023.6 hPa ENE 3.2 km/h 12.9 km/h 93 % 0.0 mm 223 W/m2
12:40 8.2 °C 7.1 °C 1023.2 hPa NE 3.2 km/h 8.0 km/h 93 % 0.0 mm 506 W/m2
12:45 8.6 °C 7.2 °C 1023.2 hPa ENE 4.8 km/h 12.9 km/h 91 % 0.0 mm 512 W/m2
12:50 8.9 °C 7.2 °C 1023.2 hPa East 3.2 km/h 12.9 km/h 89 % 0.0 mm 520 W/m2
12:55 9.7 °C 8.0 °C 1023.2 hPa SE 6.4 km/h 11.3 km/h 89 % 0.0 mm 517 W/m2
13:00 10.2 °C 8.1 °C 1022.9 hPa ESE 8.0 km/h 11.3 km/h 87 % 0.0 mm 510 W/m2
13:10 10.0 °C 7.6 °C 1022.9 hPa Calm   16.1 km/h 85 % 0.0 mm 526 W/m2
13:15 10.3 °C 7.7 °C 1022.6 hPa ESE 12.9 km/h 16.1 km/h 84 % 0.0 mm 526 W/m2
13:20 10.7 °C 7.9 °C 1022.6 hPa SE 8.0 km/h 14.5 km/h 83 % 0.0 mm 522 W/m2
13:30 11.3 °C 8.4 °C 1022.6 hPa ESE 8.0 km/h 11.3 km/h 82 % 0.0 mm 520 W/m2
13:40 11.7 °C 8.4 °C 1022.6 hPa NE 6.4 km/h 14.5 km/h 80 % 0.0 mm 513 W/m2
13:45 11.8 °C 8.4 °C 1022.6 hPa ENE 4.8 km/h 14.5 km/h 80 % 0.0 mm 517 W/m2
13:55 12.2 °C 8.7 °C 1022.6 hPa ENE 4.8 km/h 12.9 km/h 79 % 0.0 mm 501 W/m2
14:00 12.1 °C 8.1 °C 1022.6 hPa SE 4.8 km/h 12.9 km/h 77 % 0.0 mm 508 W/m2
14:05 11.9 °C 7.8 °C 1022.6 hPa ENE 3.2 km/h 8.0 km/h 76 % 0.0 mm 504 W/m2
14:10 12.4 °C 8.3 °C 1022.6 hPa Calm   9.7 km/h 76 % 0.0 mm 497 W/m2
14:15 12.7 °C 8.9 °C 1022.6 hPa NE 3.2 km/h 11.3 km/h 78 % 0.0 mm 489 W/m2
14:20 12.6 °C 8.3 °C 1022.6 hPa East 9.7 km/h 11.3 km/h 75 % 0.0 mm 482 W/m2
14:25 13.0 °C 8.7 °C 1022.2 hPa NE 3.2 km/h 11.3 km/h 75 % 0.0 mm 485 W/m2
14:30 12.9 °C 8.8 °C 1022.2 hPa ENE 8.0 km/h 12.9 km/h 76 % 0.0 mm 483 W/m2
14:40 13.1 °C 8.7 °C 1022.2 hPa ENE 8.0 km/h 11.3 km/h 75 % 0.0 mm 473 W/m2
14:45 13.2 °C 8.2 °C 1022.2 hPa ENE 3.2 km/h 16.1 km/h 72 % 0.0 mm 466 W/m2
14:55 13.4 °C 8.2 °C 1021.9 hPa ESE 6.4 km/h 16.1 km/h 71 % 0.0 mm 448 W/m2
15:00 13.6 °C 8.4 °C 1021.9 hPa NE 11.3 km/h 16.1 km/h 71 % 0.0 mm 443 W/m2
15:10 13.8 °C 8.7 °C 1021.9 hPa ESE 3.2 km/h 12.9 km/h 71 % 0.0 mm 432 W/m2
15:15 14.0 °C 8.4 °C 1021.9 hPa East 4.8 km/h 12.9 km/h 69 % 0.0 mm 422 W/m2
15:25 13.8 °C 8.0 °C 1021.9 hPa East 11.3 km/h 14.5 km/h 68 % 0.0 mm 404 W/m2
15:35 13.8 °C 7.6 °C 1021.9 hPa ESE 1.6 km/h 14.5 km/h 66 % 0.0 mm 385 W/m2
15:40 14.0 °C 7.7 °C 1021.9 hPa ESE 6.4 km/h 11.3 km/h 66 % 0.0 mm 380 W/m2
15:45 14.4 °C 8.3 °C 1021.9 hPa SE 3.2 km/h 9.7 km/h 67 % 0.0 mm 369 W/m2
15:50 14.2 °C 7.0 °C 1021.9 hPa ESE 6.4 km/h 12.9 km/h 62 % 0.0 mm 359 W/m2
15:55 14.2 °C 7.7 °C 1021.9 hPa ESE 4.8 km/h 19.3 km/h 65 % 0.0 mm 345 W/m2
16:00 14.0 °C 7.1 °C 1021.6 hPa ESE 4.8 km/h 19.3 km/h 63 % 0.0 mm 334 W/m2
16:05 14.3 °C 7.4 °C 1021.6 hPa East 11.3 km/h 14.5 km/h 63 % 0.0 mm 323 W/m2
16:10 14.4 °C 7.4 °C 1021.6 hPa East 4.8 km/h 12.9 km/h 63 % 0.0 mm 315 W/m2
16:15 14.3 °C 6.9 °C 1021.6 hPa East 6.4 km/h 14.5 km/h 61 % 0.0 mm 301 W/m2
16:20 14.1 °C 6.7 °C 1021.6 hPa NE 6.4 km/h 14.5 km/h 61 % 0.0 mm 290 W/m2
16:30 14.0 °C 6.8 °C 1021.6 hPa East 8.0 km/h 16.1 km/h 62 % 0.0 mm 271 W/m2
16:40 14.0 °C 6.8 °C 1021.6 hPa SE 8.0 km/h 12.9 km/h 62 % 0.0 mm 239 W/m2
16:45 13.9 °C 6.3 °C 1021.6 hPa ESE 8.0 km/h 14.5 km/h 60 % 0.0 mm 195 W/m2
16:50 13.8 °C 6.7 °C 1021.6 hPa ESE 6.4 km/h 14.5 km/h 62 % 0.0 mm 206 W/m2
17:00 13.9 °C 6.5 °C 1021.6 hPa ENE 4.8 km/h 9.7 km/h 61 % 0.0 mm 44 W/m2
17:10 13.7 °C 6.3 °C 1021.6 hPa ENE 1.6 km/h 11.3 km/h 61 % 0.0 mm 40 W/m2
17:15 13.6 °C 6.4 °C 1021.6 hPa ESE 1.6 km/h 11.3 km/h 62 % 0.0 mm 39 W/m2
17:20 13.4 °C 6.3 °C 1021.9 hPa ESE 4.8 km/h 9.7 km/h 62 % 0.0 mm 37 W/m2
17:30 13.3 °C 6.4 °C 1021.9 hPa SSE 4.8 km/h 9.7 km/h 63 % 0.0 mm 33 W/m2
17:40 13.1 °C 6.0 °C 1021.9 hPa ESE 3.2 km/h 6.4 km/h 62 % 0.0 mm 30 W/m2
17:45 13.1 °C 6.2 °C 1021.9 hPa ESE 1.6 km/h 4.8 km/h 63 % 0.0 mm 28 W/m2
17:55 12.7 °C 6.3 °C 1021.9 hPa Calm   4.8 km/h 65 % 0.0 mm 25 W/m2
18:00 12.2 °C 6.3 °C 1021.9 hPa ESE 4.8 km/h 4.8 km/h 67 % 0.0 mm 23 W/m2
18:05 11.6 °C 6.3 °C 1022.2 hPa Calm   4.8 km/h 70 % 0.0 mm 21 W/m2
18:10 11.1 °C 6.4 °C 1022.2 hPa Calm   4.8 km/h 73 % 0.0 mm 18 W/m2
18:15 10.7 °C 6.4 °C 1022.2 hPa ESE 1.6 km/h 1.6 km/h 75 % 0.0 mm 14 W/m2
18:20 10.2 °C 6.4 °C 1022.2 hPa Calm   1.6 km/h 77 % 0.0 mm 12 W/m2
18:25 9.7 °C 6.1 °C 1022.2 hPa Calm   1.6 km/h 78 % 0.0 mm 11 W/m2
18:30 9.3 °C 6.2 °C 1022.6 hPa Calm     81 % 0.0 mm 7 W/m2
18:35 8.9 °C 6.2 °C 1022.6 hPa Calm     83 % 0.0 mm 5 W/m2
18:40 8.5 °C 5.9 °C 1022.6 hPa Calm     84 % 0.0 mm 0 W/m2
18:45 8.1 °C 5.7 °C 1022.6 hPa Calm     85 % 0.0 mm 0 W/m2
18:50 7.8 °C 5.8 °C 1022.6 hPa Calm     87 % 0.0 mm 0 W/m2
18:55 7.8 °C 5.7 °C 1022.6 hPa Calm     87 % 0.0 mm 0 W/m2
19:00 7.6 °C 5.6 °C 1022.6 hPa Calm     87 % 0.0 mm 0 W/m2
19:05 7.3 °C 5.5 °C 1022.6 hPa Calm     88 % 0.0 mm 0 W/m2
19:10 7.1 °C 5.3 °C 1022.6 hPa Calm     88 % 0.0 mm 0 W/m2
19:15 7.0 °C 5.3 °C 1022.6 hPa Calm     89 % 0.0 mm 0 W/m2
19:20 6.7 °C 5.0 °C 1022.9 hPa Calm     89 % 0.0 mm 0 W/m2
19:25 6.4 °C 4.9 °C 1022.9 hPa Calm   1.6 km/h 90 % 0.0 mm 0 W/m2
19:30 6.6 °C 5.0 °C 1022.9 hPa Calm   1.6 km/h 90 % 0.0 mm 0 W/m2
19:35 6.7 °C 5.0 °C 1022.9 hPa Calm   1.6 km/h 89 % 0.0 mm 0 W/m2
19:40 6.5 °C 4.8 °C 1022.9 hPa Calm   1.6 km/h 89 % 0.0 mm 0 W/m2
19:45 5.9 °C 4.3 °C 1022.9 hPa Calm     89 % 0.0 mm 0 W/m2
19:50 5.5 °C 4.0 °C 1022.9 hPa Calm     90 % 0.0 mm 0 W/m2
19:55 5.3 °C 3.9 °C 1023.2 hPa Calm     91 % 0.0 mm 0 W/m2
20:00 5.0 °C 3.8 °C 1023.2 hPa Calm     92 % 0.0 mm 0 W/m2
20:05 4.9 °C 3.8 °C 1023.2 hPa Calm     92 % 0.0 mm 0 W/m2
20:10 4.8 °C 3.7 °C 1023.2 hPa Calm     93 % 0.0 mm 0 W/m2
20:15 4.6 °C 3.4 °C 1023.2 hPa Calm     92 % 0.0 mm 0 W/m2
20:20 4.5 °C 3.5 °C 1023.2 hPa Calm     93 % 0.0 mm 0 W/m2
20:25 4.7 °C 3.8 °C 1023.2 hPa Calm     94 % 0.0 mm 0 W/m2
20:30 4.7 °C 3.6 °C 1023.2 hPa Calm   1.6 km/h 93 % 0.0 mm 0 W/m2
20:35 4.4 °C 3.4 °C 1023.2 hPa Calm   1.6 km/h 93 % 0.0 mm 0 W/m2
20:40 4.2 °C 3.2 °C 1023.2 hPa Calm     93 % 0.0 mm 0 W/m2
20:45 3.9 °C 2.9 °C 1023.6 hPa Calm     93 % 0.0 mm 0 W/m2
20:50 3.7 °C 2.6 °C 1023.6 hPa Calm     93 % 0.0 mm 0 W/m2
20:55 3.6 °C 2.7 °C 1023.6 hPa Calm     94 % 0.0 mm 0 W/m2
21:00 3.6 °C 2.7 °C 1023.6 hPa Calm     94 % 0.0 mm 0 W/m2
21:05 3.6 °C 2.7 °C 1023.6 hPa Calm     94 % 0.0 mm 0 W/m2
21:15 3.6 °C 2.7 °C 1023.6 hPa Calm     94 % 0.0 mm 0 W/m2
21:20 3.6 °C 2.7 °C 1023.9 hPa Calm     94 % 0.0 mm 0 W/m2
21:25 3.6 °C 2.7 °C 1023.9 hPa Calm     94 % 0.0 mm 0 W/m2
21:30 3.5 °C 2.6 °C 1023.9 hPa Calm     94 % 0.0 mm 0 W/m2
21:35 3.4 °C 2.6 °C 1023.6 hPa Calm     94 % 0.0 mm 0 W/m2
21:40 3.6 °C 2.7 °C 1023.6 hPa Calm   1.6 km/h 94 % 0.0 mm 0 W/m2
21:45 3.2 °C 2.3 °C 1023.9 hPa Calm   1.6 km/h 94 % 0.0 mm 0 W/m2
21:50 2.9 °C 2.0 °C 1023.9 hPa Calm     94 % 0.0 mm 0 W/m2
21:55 2.8 °C 1.9 °C 1023.9 hPa Calm     94 % 0.0 mm 0 W/m2
22:00 2.8 °C 2.0 °C 1023.9 hPa Calm     94 % 0.0 mm 0 W/m2
22:05 2.7 °C 1.9 °C 1023.9 hPa Calm     94 % 0.0 mm 0 W/m2
22:10 2.5 °C 1.6 °C 1024.3 hPa Calm     94 % 0.0 mm 0 W/m2
22:15 2.3 °C 1.5 °C 1024.3 hPa Calm     94 % 0.0 mm 0 W/m2
22:20 2.4 °C 1.7 °C 1024.3 hPa Calm     95 % 0.0 mm 0 W/m2
22:25 2.6 °C 1.8 °C 1024.3 hPa Calm     95 % 0.0 mm 0 W/m2
22:30 2.3 °C 1.5 °C 1024.3 hPa Calm     94 % 0.0 mm 0 W/m2
22:35 2.2 °C 1.4 °C 1024.3 hPa Calm     95 % 0.0 mm 0 W/m2
22:40 2.1 °C 1.3 °C 1024.3 hPa Calm     95 % 0.0 mm 0 W/m2
22:45 2.0 °C 1.3 °C 1024.3 hPa Calm     95 % 0.0 mm 0 W/m2
22:50 2.1 °C 1.3 °C 1024.3 hPa Calm     95 % 0.0 mm 0 W/m2
22:55 2.0 °C 1.3 °C 1024.3 hPa Calm     95 % 0.0 mm 0 W/m2
23:00 1.7 °C 1.0 °C 1024.6 hPa Calm     95 % 0.0 mm 0 W/m2
23:05 1.6 °C 0.8 °C 1024.6 hPa Calm     95 % 0.0 mm 0 W/m2
23:10 1.5 °C 0.8 °C 1024.6 hPa Calm     95 % 0.0 mm 0 W/m2
23:15 1.4 °C 0.7 °C 1024.6 hPa Calm     95 % 0.0 mm 0 W/m2
23:20 1.8 °C 1.2 °C 1024.6 hPa Calm     96 % 0.0 mm 0 W/m2
23:25 1.9 °C 1.4 °C 1024.6 hPa Calm     96 % 0.0 mm 0 W/m2
23:30 1.9 °C 1.3 °C 1024.6 hPa Calm     96 % 0.0 mm 0 W/m2
23:35 1.8 °C 1.2 °C 1024.6 hPa Calm   1.6 km/h 96 % 0.0 mm 0 W/m2
23:40 1.8 °C 1.2 °C 1024.6 hPa Calm   1.6 km/h 96 % 0.0 mm 0 W/m2
23:45 1.6 °C 1.0 °C 1024.6 hPa Calm     96 % 0.0 mm 0 W/m2
23:50 1.8 °C 1.2 °C 1024.6 hPa Calm     96 % 0.0 mm 0 W/m2
23:55 1.8 °C 1.2 °C 1024.6 hPa Calm     96 % 0.0 mm 0 W/m2
Avec l'autorisation de Weather Underground - 1.5 mb